createdAt,value
2022-07-29T00:00:33.603Z,20.56
2022-07-29T00:01:33.588Z,20.50
2022-07-29T00:02:33.623Z,20.59
2022-07-29T00:03:33.651Z,20.66
2022-07-29T00:04:33.676Z,20.54
2022-07-29T00:05:33.541Z,20.56
2022-07-29T00:06:33.536Z,20.64
2022-07-29T00:07:33.519Z,20.54
2022-07-29T00:08:33.513Z,20.49
2022-07-29T00:09:33.497Z,20.61
2022-07-29T00:10:34.501Z,20.56
2022-07-29T00:11:33.481Z,20.50
2022-07-29T00:12:33.461Z,20.59
2022-07-29T00:13:33.458Z,20.61
2022-07-29T00:14:33.446Z,20.58
2022-07-29T00:15:33.431Z,20.61
2022-07-29T00:16:33.494Z,20.61
2022-07-29T00:17:33.406Z,20.59
2022-07-29T00:18:33.397Z,20.65
2022-07-29T00:19:33.391Z,20.58
2022-07-29T00:20:33.372Z,20.53
2022-07-29T00:21:33.361Z,20.53
2022-07-29T00:22:33.374Z,20.47
2022-07-29T00:23:36.726Z,20.46
2022-07-29T00:24:33.333Z,20.53
2022-07-29T00:25:33.930Z,20.42
2022-07-29T00:26:33.312Z,20.46
2022-07-29T00:27:33.296Z,20.51
2022-07-29T00:28:33.341Z,20.34
2022-07-29T00:29:34.612Z,20.49
2022-07-29T00:30:33.263Z,20.34
2022-07-29T00:31:33.315Z,20.50
2022-07-29T00:32:33.248Z,20.33
2022-07-29T00:33:33.234Z,20.42
2022-07-29T00:34:33.252Z,20.47
2022-07-29T00:35:33.205Z,20.35
2022-07-29T00:36:33.200Z,20.35
2022-07-29T00:37:33.189Z,20.33
2022-07-29T00:38:33.177Z,20.35
2022-07-29T00:39:33.159Z,20.38
2022-07-29T00:40:33.168Z,20.31
2022-07-29T00:41:33.147Z,20.41
2022-07-29T00:42:33.127Z,20.34
2022-07-29T00:43:33.117Z,20.34
2022-07-29T00:44:33.114Z,20.34
2022-07-29T00:45:33.095Z,20.31
2022-07-29T00:46:33.200Z,20.34
2022-07-29T00:47:33.071Z,20.35
2022-07-29T00:48:33.066Z,20.33
2022-07-29T00:49:33.052Z,20.30
2022-07-29T00:50:33.042Z,20.30
2022-07-29T00:51:33.029Z,20.38
2022-07-29T00:52:33.061Z,20.25
2022-07-29T00:53:33.011Z,20.28
2022-07-29T00:54:32.999Z,20.27
2022-07-29T00:55:32.991Z,20.30
2022-07-29T00:56:32.976Z,20.31
2022-07-29T00:57:32.961Z,20.31
2022-07-29T00:58:32.978Z,20.30
2022-07-29T00:59:34.601Z,20.31
2022-07-29T01:00:33.004Z,20.28
2022-07-29T01:01:32.988Z,20.27
2022-07-29T01:02:33.010Z,20.30
2022-07-29T01:03:32.891Z,20.35
2022-07-29T01:04:32.925Z,20.27
2022-07-29T01:05:50.976Z,20.31
2022-07-29T01:06:33.857Z,20.28
2022-07-29T01:07:32.855Z,20.31
2022-07-29T01:08:32.843Z,20.31
2022-07-29T01:09:36.028Z,20.34
2022-07-29T01:10:33.838Z,20.31
2022-07-29T01:11:32.817Z,20.33
2022-07-29T01:12:32.791Z,20.25
2022-07-29T01:13:32.787Z,20.39
2022-07-29T01:14:32.769Z,20.31
2022-07-29T01:15:32.761Z,20.27
2022-07-29T01:16:32.875Z,20.31
2022-07-29T01:19:18.191Z,20.28
2022-07-29T01:19:42.532Z,20.34
2022-07-29T01:20:42.513Z,20.33
2022-07-29T01:21:42.527Z,20.24
2022-07-29T01:22:42.498Z,20.34
2022-07-29T01:23:42.489Z,20.30
2022-07-29T01:24:42.469Z,20.34
2022-07-29T01:25:42.461Z,20.28
2022-07-29T01:26:42.470Z,20.28
2022-07-29T01:27:42.482Z,20.23
2022-07-29T01:28:42.433Z,20.25
2022-07-29T01:29:42.423Z,20.25
2022-07-29T01:30:42.403Z,20.25
2022-07-29T01:31:55.225Z,20.28
2022-07-29T01:32:43.393Z,20.20
2022-07-29T01:33:42.376Z,20.31
2022-07-29T01:34:42.367Z,20.25
2022-07-29T01:35:42.364Z,20.31
2022-07-29T01:36:42.350Z,20.18
2022-07-29T01:37:42.348Z,20.20
2022-07-29T01:38:42.332Z,20.28
2022-07-29T01:39:42.313Z,20.21
2022-07-29T01:40:42.299Z,20.25
2022-07-29T01:41:42.298Z,20.28
2022-07-29T01:42:42.296Z,20.24
2022-07-29T01:43:42.270Z,20.28
2022-07-29T01:44:42.254Z,20.24
2022-07-29T01:45:42.250Z,20.21
2022-07-29T01:46:42.315Z,20.21
2022-07-29T01:47:42.237Z,20.20
2022-07-29T01:48:42.273Z,20.24
2022-07-29T01:49:42.213Z,20.24
2022-07-29T01:50:42.196Z,20.24
2022-07-29T01:51:42.186Z,20.13
2022-07-29T01:52:42.190Z,20.18
2022-07-29T01:53:42.163Z,20.16
2022-07-29T01:54:42.146Z,20.18
2022-07-29T01:55:42.142Z,20.09
2022-07-29T01:56:42.128Z,20.16
2022-07-29T01:57:42.127Z,20.08
2022-07-29T01:58:42.100Z,20.08
2022-07-29T01:59:42.093Z,20.02
2022-07-29T02:00:43.964Z,20.03
2022-07-29T02:01:42.150Z,20.03
2022-07-29T02:02:42.095Z,20.08
2022-07-29T02:03:42.046Z,20.09
2022-07-29T02:04:42.141Z,20.05
2022-07-29T02:05:42.023Z,20.02
2022-07-29T02:06:42.022Z,19.98
2022-07-29T02:07:42.010Z,20.09
2022-07-29T02:08:42.011Z,20.06
2022-07-29T02:09:42.005Z,20.08
2022-07-29T02:10:41.973Z,20.06
2022-07-29T02:11:41.958Z,19.97
2022-07-29T02:12:41.945Z,20.00
2022-07-29T02:13:41.949Z,19.91
2022-07-29T02:14:41.930Z,19.95
2022-07-29T02:15:41.974Z,19.94
2022-07-29T02:16:41.899Z,19.78
2022-07-29T02:17:41.898Z,19.80
2022-07-29T02:18:41.895Z,19.86
2022-07-29T02:19:41.869Z,19.80
2022-07-29T02:20:41.860Z,19.58
2022-07-29T02:21:41.853Z,19.68
2022-07-29T02:22:41.837Z,19.73
2022-07-29T02:23:45.274Z,19.76
2022-07-29T02:24:42.813Z,19.76
2022-07-29T02:25:41.807Z,19.69
2022-07-29T02:26:41.795Z,19.61
2022-07-29T02:27:41.779Z,19.54
2022-07-29T02:28:41.783Z,19.72
2022-07-29T02:29:41.771Z,19.83
2022-07-29T02:30:41.747Z,19.57
2022-07-29T02:31:41.786Z,19.68
2022-07-29T02:32:41.723Z,19.63
2022-07-29T02:33:41.747Z,19.65
2022-07-29T02:34:41.704Z,19.60
2022-07-29T02:35:41.690Z,19.53
2022-07-29T02:36:41.682Z,19.63
2022-07-29T02:37:41.679Z,19.48
2022-07-29T02:38:41.664Z,19.51
2022-07-29T02:39:41.669Z,19.47
2022-07-29T02:40:41.640Z,19.47
2022-07-29T02:41:41.634Z,19.47
2022-07-29T02:42:41.612Z,19.46
2022-07-29T02:43:41.603Z,19.42
2022-07-29T02:44:41.612Z,19.39
2022-07-29T02:45:41.589Z,19.36
2022-07-29T02:46:41.609Z,19.36
2022-07-29T02:47:42.262Z,19.35
2022-07-29T02:48:41.591Z,19.29
2022-07-29T02:49:41.552Z,19.32
2022-07-29T02:50:41.524Z,19.28
2022-07-29T02:51:44.447Z,19.23
2022-07-29T02:52:41.505Z,19.18
2022-07-29T02:53:41.499Z,19.21
2022-07-29T02:54:41.506Z,19.29
2022-07-29T02:55:41.481Z,19.15
2022-07-29T02:56:41.464Z,19.14
2022-07-29T02:57:54.069Z,19.13
2022-07-29T02:58:42.441Z,19.14
2022-07-29T02:59:41.425Z,19.15
2022-07-29T03:00:41.438Z,19.20
2022-07-29T03:01:41.439Z,19.24
2022-07-29T03:02:41.392Z,19.18
2022-07-29T03:03:41.381Z,19.18
2022-07-29T03:04:41.455Z,19.18
2022-07-29T03:05:41.383Z,19.21
2022-07-29T03:06:41.353Z,19.18
2022-07-29T03:07:41.337Z,19.24
2022-07-29T03:08:41.336Z,19.25
2022-07-29T03:09:41.323Z,19.25
2022-07-29T03:10:41.319Z,19.14
2022-07-29T03:11:49.386Z,19.18
2022-07-29T03:12:42.288Z,19.31
2022-07-29T03:13:41.278Z,19.23
2022-07-29T03:14:41.268Z,19.18
2022-07-29T03:15:41.351Z,19.18
2022-07-29T03:16:41.511Z,19.21
2022-07-29T03:17:41.234Z,19.17
2022-07-29T03:18:41.223Z,19.29
2022-07-29T03:19:41.204Z,19.28
2022-07-29T03:20:41.213Z,19.14
2022-07-29T03:21:41.183Z,19.24
2022-07-29T03:22:41.170Z,19.25
2022-07-29T03:23:41.167Z,19.23
2022-07-29T03:24:41.155Z,19.25
2022-07-29T03:25:41.160Z,19.24
2022-07-29T03:26:41.127Z,19.28
2022-07-29T03:27:41.117Z,19.17
2022-07-29T03:28:41.103Z,19.18
2022-07-29T03:29:41.093Z,19.32
2022-07-29T03:30:42.096Z,19.20
2022-07-29T03:31:41.123Z,19.21
2022-07-29T03:32:41.061Z,19.29
2022-07-29T03:33:41.059Z,19.25
2022-07-29T03:34:41.037Z,19.18
2022-07-29T03:35:41.041Z,19.14
2022-07-29T03:36:41.015Z,19.25
2022-07-29T03:37:41.012Z,19.31
2022-07-29T03:38:40.998Z,19.28
2022-07-29T03:39:40.995Z,19.18
2022-07-29T03:40:40.991Z,19.29
2022-07-29T03:41:40.966Z,19.29
2022-07-29T03:42:40.948Z,19.28
2022-07-29T03:43:49.551Z,19.33
2022-07-29T03:44:41.933Z,19.33
2022-07-29T03:45:40.944Z,19.31
2022-07-29T03:46:40.963Z,19.42
2022-07-29T03:47:50.161Z,19.39
2022-07-29T03:48:41.918Z,19.46
2022-07-29T03:49:40.876Z,19.42
2022-07-29T03:50:40.875Z,19.36
2022-07-29T03:51:40.848Z,19.40
2022-07-29T03:52:40.844Z,19.46
2022-07-29T03:53:40.834Z,19.47
2022-07-29T03:54:40.833Z,19.43
2022-07-29T03:55:40.825Z,19.51
2022-07-29T03:56:40.804Z,19.42
2022-07-29T03:57:40.790Z,19.38
2022-07-29T03:58:40.773Z,19.48
2022-07-29T03:59:40.768Z,19.33
2022-07-29T04:00:40.758Z,19.29
2022-07-29T04:01:40.841Z,19.43
2022-07-29T04:02:40.736Z,19.38
2022-07-29T04:03:40.774Z,19.36
2022-07-29T04:04:40.707Z,19.36
2022-07-29T04:05:40.695Z,19.38
2022-07-29T04:06:40.703Z,19.29
2022-07-29T04:07:40.671Z,19.42
2022-07-29T04:08:40.661Z,19.35
2022-07-29T04:09:40.658Z,19.35
2022-07-29T04:10:40.640Z,19.33
2022-07-29T04:11:59.840Z,19.31
2022-07-29T04:12:41.622Z,19.36
2022-07-29T04:13:40.625Z,19.32
2022-07-29T04:14:40.593Z,19.36
2022-07-29T04:15:40.624Z,19.29
2022-07-29T04:16:40.591Z,19.23
2022-07-29T04:17:40.565Z,19.33
2022-07-29T04:18:40.556Z,19.35
2022-07-29T04:19:40.535Z,19.17
2022-07-29T04:20:40.553Z,19.33
2022-07-29T04:21:40.525Z,19.28
2022-07-29T04:22:40.502Z,19.32
2022-07-29T04:23:52.982Z,19.23
2022-07-29T04:24:44.309Z,19.20
2022-07-29T04:25:40.468Z,19.23
2022-07-29T04:26:40.467Z,19.28
2022-07-29T04:27:40.455Z,19.31
2022-07-29T04:28:40.440Z,19.28
2022-07-29T04:29:56.112Z,19.21
2022-07-29T04:30:41.473Z,19.24
2022-07-29T04:31:40.542Z,19.24
2022-07-29T04:32:40.388Z,19.25
2022-07-29T04:33:40.377Z,19.18
2022-07-29T04:34:40.374Z,19.31
2022-07-29T04:35:49.730Z,19.25
2022-07-29T04:36:41.356Z,19.32
2022-07-29T04:37:40.338Z,19.21
2022-07-29T04:38:40.330Z,19.33
2022-07-29T04:39:40.306Z,19.31
2022-07-29T04:40:40.306Z,19.33
2022-07-29T04:41:40.313Z,19.33
2022-07-29T04:42:46.388Z,19.36
2022-07-29T04:43:41.270Z,19.38
2022-07-29T04:44:42.900Z,19.31
2022-07-29T04:45:40.241Z,19.36
2022-07-29T04:46:40.327Z,19.32
2022-07-29T04:47:40.231Z,19.38
2022-07-29T04:48:40.261Z,19.36
2022-07-29T04:49:40.202Z,19.33
2022-07-29T04:50:40.194Z,19.40
2022-07-29T04:51:40.188Z,19.32
2022-07-29T04:52:40.166Z,19.38
2022-07-29T04:53:40.158Z,19.42
2022-07-29T04:54:40.146Z,19.39
2022-07-29T04:55:40.128Z,19.42
2022-07-29T04:56:40.134Z,19.50
2022-07-29T04:57:40.104Z,19.36
2022-07-29T04:58:40.098Z,19.50
2022-07-29T04:59:40.084Z,19.43
2022-07-29T05:00:40.078Z,19.46
2022-07-29T05:01:40.149Z,19.47
2022-07-29T05:02:40.152Z,19.50
2022-07-29T05:03:40.035Z,19.53
2022-07-29T05:04:40.028Z,19.53
2022-07-29T05:05:40.015Z,19.55
2022-07-29T05:06:40.012Z,19.43
2022-07-29T05:07:40.012Z,19.54
2022-07-29T05:08:39.980Z,19.43
2022-07-29T05:09:39.971Z,19.50
2022-07-29T05:10:39.969Z,19.47
2022-07-29T05:11:39.954Z,19.63
2022-07-29T05:12:39.960Z,19.51
2022-07-29T05:13:45.224Z,19.55
2022-07-29T05:14:40.920Z,19.55
2022-07-29T05:15:39.968Z,19.63
2022-07-29T05:16:39.895Z,19.58
2022-07-29T05:17:39.899Z,19.50
2022-07-29T05:18:39.881Z,19.68
2022-07-29T05:19:39.991Z,19.63
2022-07-29T05:20:39.855Z,19.65
2022-07-29T05:21:39.840Z,19.72
2022-07-29T05:22:39.842Z,19.63
2022-07-29T05:23:39.818Z,19.65
2022-07-29T05:24:39.804Z,19.72
2022-07-29T05:25:43.702Z,19.61
2022-07-29T05:26:40.779Z,19.68
2022-07-29T05:27:39.789Z,19.76
2022-07-29T05:28:39.754Z,19.75
2022-07-29T05:29:44.588Z,19.79
2022-07-29T05:30:40.813Z,19.80
2022-07-29T05:31:39.720Z,19.76
2022-07-29T05:32:39.733Z,19.83
2022-07-29T05:33:39.699Z,19.75
2022-07-29T05:34:51.307Z,19.78
2022-07-29T05:35:40.683Z,19.80
2022-07-29T05:36:39.674Z,19.72
2022-07-29T05:37:39.668Z,19.80
2022-07-29T05:38:39.649Z,19.72
2022-07-29T05:39:48.316Z,19.83
2022-07-29T05:40:40.621Z,19.86
2022-07-29T05:41:39.616Z,19.84
2022-07-29T05:42:39.622Z,19.80
2022-07-29T05:43:39.601Z,19.88
2022-07-29T05:44:39.585Z,19.86
2022-07-29T05:45:49.580Z,19.90
2022-07-29T05:46:40.649Z,19.84
2022-07-29T05:47:39.571Z,19.97
2022-07-29T05:48:39.585Z,19.98
2022-07-29T05:49:39.528Z,20.03
2022-07-29T05:50:44.390Z,20.05
2022-07-29T05:51:39.498Z,20.06
2022-07-29T05:52:39.510Z,20.15
2022-07-29T05:53:39.488Z,20.06
2022-07-29T05:54:39.474Z,20.15
2022-07-29T05:55:39.473Z,20.12
2022-07-29T05:56:39.517Z,20.23
2022-07-29T05:57:39.454Z,20.18
2022-07-29T05:58:39.430Z,20.28
2022-07-29T05:59:39.448Z,20.28
2022-07-29T06:00:39.406Z,20.25
2022-07-29T06:01:39.454Z,20.42
2022-07-29T06:02:39.407Z,20.39
2022-07-29T06:03:39.367Z,20.39
2022-07-29T06:04:39.382Z,20.54
2022-07-29T06:05:39.346Z,20.50
2022-07-29T06:06:39.343Z,20.64
2022-07-29T06:07:39.342Z,20.61
2022-07-29T06:08:40.319Z,20.69
2022-07-29T06:09:39.312Z,20.71
2022-07-29T06:10:39.288Z,20.71
2022-07-29T06:11:39.279Z,20.79
2022-07-29T06:12:39.284Z,20.77
2022-07-29T06:13:39.263Z,20.99
2022-07-29T06:14:39.280Z,21.08
2022-07-29T06:15:39.300Z,20.96
2022-07-29T06:16:39.321Z,21.14
2022-07-29T06:17:39.226Z,21.14
2022-07-29T06:18:40.207Z,21.26
2022-07-29T06:19:39.194Z,21.42
2022-07-29T06:20:39.185Z,21.34
2022-07-29T06:21:42.150Z,21.44
2022-07-29T06:22:39.177Z,21.44
2022-07-29T06:23:39.145Z,21.41
2022-07-29T06:24:39.135Z,21.48
2022-07-29T06:25:39.122Z,21.56
2022-07-29T06:26:40.042Z,21.44
2022-07-29T06:27:39.124Z,21.50
2022-07-29T06:28:39.093Z,21.53
2022-07-29T06:29:39.080Z,21.50
2022-07-29T06:30:39.183Z,21.50
2022-07-29T06:31:39.060Z,21.41
2022-07-29T06:32:43.059Z,21.41
2022-07-29T06:33:39.115Z,21.42
2022-07-29T06:34:39.035Z,21.35
2022-07-29T06:35:41.935Z,21.19
2022-07-29T06:36:39.728Z,21.27
2022-07-29T06:37:39.013Z,21.23
2022-07-29T06:38:42.942Z,21.13
2022-07-29T06:39:39.975Z,21.17
2022-07-29T06:40:38.972Z,21.06
2022-07-29T06:41:38.945Z,21.09
2022-07-29T06:42:38.967Z,21.16
2022-07-29T06:43:51.773Z,21.09
2022-07-29T06:44:39.912Z,21.14
2022-07-29T06:45:39.021Z,21.13
2022-07-29T06:46:38.989Z,21.09
2022-07-29T06:47:38.892Z,21.11
2022-07-29T06:48:38.961Z,21.08
2022-07-29T06:49:38.869Z,21.04
2022-07-29T06:50:38.855Z,20.96
2022-07-29T06:51:38.834Z,21.04
2022-07-29T06:52:38.839Z,20.99
2022-07-29T06:53:38.814Z,20.95
2022-07-29T06:54:39.802Z,21.01
2022-07-29T06:55:38.790Z,21.01
2022-07-29T06:56:40.243Z,20.95
2022-07-29T06:57:38.791Z,21.06
2022-07-29T06:58:38.760Z,21.01
2022-07-29T06:59:38.752Z,20.99
2022-07-29T07:00:38.736Z,20.98
2022-07-29T07:01:38.897Z,21.06
2022-07-29T07:02:38.831Z,21.17
2022-07-29T07:03:38.708Z,21.08
2022-07-29T07:04:38.712Z,21.26
2022-07-29T07:05:38.687Z,21.24
2022-07-29T07:06:38.718Z,21.36
2022-07-29T07:07:38.678Z,21.42
2022-07-29T07:08:38.658Z,21.54
2022-07-29T07:09:40.303Z,21.53
2022-07-29T07:10:38.625Z,21.53
2022-07-29T07:11:38.612Z,21.75
2022-07-29T07:12:38.624Z,21.88
2022-07-29T07:13:38.599Z,21.85
2022-07-29T07:14:38.587Z,21.90
2022-07-29T07:15:39.462Z,21.82
2022-07-29T07:16:38.597Z,21.88
2022-07-29T07:17:38.581Z,21.94
2022-07-29T07:18:38.536Z,21.90
2022-07-29T07:19:38.525Z,21.91
2022-07-29T07:20:38.529Z,21.98
2022-07-29T07:21:38.511Z,21.95
2022-07-29T07:22:39.111Z,21.94
2022-07-29T07:23:38.498Z,22.13
2022-07-29T07:24:38.477Z,22.17
2022-07-29T07:25:38.465Z,22.28
2022-07-29T07:26:38.464Z,22.32
2022-07-29T07:27:38.435Z,22.37
2022-07-29T07:28:38.440Z,22.38
2022-07-29T07:29:38.416Z,22.39
2022-07-29T07:30:38.406Z,22.44
2022-07-29T07:31:38.465Z,22.44
2022-07-29T07:32:38.384Z,22.44
2022-07-29T07:33:38.391Z,22.43
2022-07-29T07:34:38.368Z,22.39
2022-07-29T07:35:38.359Z,22.44
2022-07-29T07:36:38.343Z,22.37
2022-07-29T07:37:38.330Z,22.28
2022-07-29T07:38:38.331Z,22.29
2022-07-29T07:39:38.308Z,22.16
2022-07-29T07:40:38.301Z,22.28
2022-07-29T07:41:38.288Z,22.10
2022-07-29T07:42:38.276Z,22.14
2022-07-29T07:43:38.286Z,22.10
2022-07-29T07:44:57.256Z,22.02
2022-07-29T07:45:39.254Z,21.99
2022-07-29T07:46:38.226Z,22.02
2022-07-29T07:47:38.217Z,22.01
2022-07-29T07:48:38.281Z,22.02
2022-07-29T07:49:38.197Z,21.97
2022-07-29T07:50:38.183Z,21.94
2022-07-29T07:51:38.167Z,21.95
2022-07-29T07:52:38.164Z,21.98
2022-07-29T07:53:38.169Z,21.97
2022-07-29T07:54:38.147Z,21.91
2022-07-29T07:56:00.310Z,21.82
2022-07-29T07:56:39.115Z,21.76
2022-07-29T07:57:38.101Z,21.76
2022-07-29T07:58:38.116Z,21.76
2022-07-29T07:59:38.086Z,21.72
2022-07-29T08:00:38.077Z,21.69
2022-07-29T08:01:54.676Z,21.64
2022-07-29T08:02:39.083Z,21.67
2022-07-29T08:03:38.053Z,21.61
2022-07-29T08:04:38.032Z,21.71
2022-07-29T08:05:38.037Z,21.67
2022-07-29T08:06:38.003Z,21.67
2022-07-29T08:07:37.997Z,21.64
2022-07-29T08:08:38.005Z,21.56
2022-07-29T08:09:37.972Z,21.59
2022-07-29T08:10:37.967Z,21.60
2022-07-29T08:11:37.968Z,21.61
2022-07-29T08:12:38.944Z,21.63
2022-07-29T08:13:37.949Z,21.56
2022-07-29T08:14:37.917Z,21.61
2022-07-29T08:15:37.912Z,21.56
2022-07-29T08:16:37.981Z,21.53
2022-07-29T08:17:37.882Z,21.54
2022-07-29T08:18:37.887Z,21.60
2022-07-29T08:19:37.859Z,21.59
2022-07-29T08:20:37.855Z,21.57
2022-07-29T08:21:37.844Z,21.61
2022-07-29T08:22:37.837Z,21.50
2022-07-29T08:23:45.972Z,21.64
2022-07-29T08:24:38.806Z,21.59
2022-07-29T08:25:38.701Z,21.61
2022-07-29T08:26:37.792Z,21.66
2022-07-29T08:27:44.997Z,21.69
2022-07-29T08:28:38.788Z,21.57
2022-07-29T08:29:37.748Z,21.76
2022-07-29T08:30:37.749Z,21.63
2022-07-29T08:31:37.827Z,21.64
2022-07-29T08:32:53.271Z,21.75
2022-07-29T08:33:38.737Z,21.78
2022-07-29T08:34:37.693Z,21.83
2022-07-29T08:35:37.690Z,21.88
2022-07-29T08:36:37.671Z,21.83
2022-07-29T08:37:37.668Z,21.90
2022-07-29T08:38:37.681Z,21.85
2022-07-29T08:39:37.653Z,21.97
2022-07-29T08:40:37.633Z,21.85
2022-07-29T08:41:37.621Z,21.85
2022-07-29T08:42:37.612Z,21.79
2022-07-29T08:43:37.917Z,21.88
2022-07-29T08:44:37.590Z,21.88
2022-07-29T08:45:37.629Z,21.94
2022-07-29T08:46:37.561Z,21.88
2022-07-29T08:47:37.557Z,21.85
2022-07-29T08:48:37.622Z,22.04
2022-07-29T08:49:37.541Z,21.81
2022-07-29T08:50:37.517Z,21.91
2022-07-29T08:51:49.713Z,21.91
2022-07-29T08:52:38.504Z,21.94
2022-07-29T08:53:37.501Z,21.94
2022-07-29T08:54:37.494Z,22.14
2022-07-29T08:55:37.459Z,22.14
2022-07-29T08:56:37.460Z,22.14
2022-07-29T08:57:37.472Z,22.14
2022-07-29T08:58:38.413Z,22.27
2022-07-29T08:59:37.416Z,22.28
2022-07-29T09:00:37.415Z,22.29
2022-07-29T09:01:42.511Z,22.43
2022-07-29T09:02:38.383Z,22.56
2022-07-29T09:03:37.461Z,22.69
2022-07-29T09:04:37.359Z,22.83
2022-07-29T09:05:41.207Z,22.93
2022-07-29T09:06:38.351Z,23.12
2022-07-29T09:07:37.333Z,23.14
2022-07-29T09:08:37.339Z,23.22
2022-07-29T09:09:37.304Z,23.31
2022-07-29T09:10:37.303Z,23.40
2022-07-29T09:11:37.290Z,23.62
2022-07-29T09:12:38.215Z,23.82
2022-07-29T09:13:37.276Z,23.85
2022-07-29T09:14:37.274Z,23.86
2022-07-29T09:15:37.242Z,23.86
2022-07-29T09:16:52.314Z,23.92
2022-07-29T09:17:38.282Z,24.05
2022-07-29T09:18:37.235Z,24.13
2022-07-29T09:19:37.206Z,23.95
2022-07-29T09:20:37.196Z,24.00
2022-07-29T09:21:37.185Z,23.94
2022-07-29T09:22:41.730Z,23.80
2022-07-29T09:23:37.167Z,23.79
2022-07-29T09:24:37.154Z,23.80
2022-07-29T09:25:37.132Z,23.79
2022-07-29T09:26:37.126Z,23.72
2022-07-29T09:27:37.113Z,23.71
2022-07-29T09:28:37.148Z,23.70
2022-07-29T09:29:37.087Z,23.67
2022-07-29T09:30:37.081Z,23.38
2022-07-29T09:31:37.140Z,23.29
2022-07-29T09:32:37.059Z,23.23
2022-07-29T09:33:37.057Z,23.38
2022-07-29T09:34:37.062Z,23.38
2022-07-29T09:35:37.023Z,23.55
2022-07-29T09:36:37.015Z,23.67
2022-07-29T09:37:36.996Z,24.22
2022-07-29T09:38:36.986Z,25.17
2022-07-29T09:39:36.997Z,25.94
2022-07-29T09:40:36.974Z,26.42
2022-07-29T09:41:36.952Z,26.40
2022-07-29T09:42:36.944Z,26.37
2022-07-29T09:43:36.938Z,26.35
2022-07-29T09:44:36.928Z,26.06
2022-07-29T09:45:36.932Z,25.97
2022-07-29T09:46:36.941Z,25.79
2022-07-29T09:47:36.894Z,25.52
2022-07-29T09:48:36.888Z,25.54
2022-07-29T09:49:36.868Z,25.30
2022-07-29T09:50:36.870Z,25.12
2022-07-29T09:51:38.228Z,25.01
2022-07-29T09:52:36.842Z,24.97
2022-07-29T09:53:36.828Z,24.94
2022-07-29T09:54:36.821Z,24.92
2022-07-29T09:55:36.826Z,24.88
2022-07-29T09:56:36.796Z,24.73
2022-07-29T09:57:36.788Z,24.69
2022-07-29T09:58:36.771Z,24.47
2022-07-29T09:59:36.765Z,24.49
2022-07-29T10:00:37.875Z,24.31
2022-07-29T10:01:36.737Z,24.23
2022-07-29T10:02:36.734Z,24.22
2022-07-29T10:03:36.769Z,24.22
2022-07-29T10:04:36.712Z,24.19
2022-07-29T10:05:37.102Z,24.16
2022-07-29T10:06:36.691Z,24.13
2022-07-29T10:07:36.690Z,24.19
2022-07-29T10:08:36.666Z,24.37
2022-07-29T10:09:36.656Z,24.23
2022-07-29T10:10:36.660Z,24.17
2022-07-29T10:11:49.213Z,24.29
2022-07-29T10:12:37.622Z,24.31
2022-07-29T10:13:36.605Z,24.16
2022-07-29T10:14:36.601Z,24.19
2022-07-29T10:15:36.603Z,24.34
2022-07-29T10:16:36.642Z,24.54
2022-07-29T10:17:36.561Z,24.71
2022-07-29T10:18:37.550Z,24.69
2022-07-29T10:19:36.548Z,24.90
2022-07-29T10:20:36.537Z,24.77
2022-07-29T10:21:36.799Z,24.88
2022-07-29T10:22:52.582Z,24.77
2022-07-29T10:23:46.203Z,24.90
2022-07-29T10:24:37.491Z,24.90
2022-07-29T10:25:36.481Z,24.82
2022-07-29T10:26:36.483Z,24.88
2022-07-29T10:27:36.464Z,24.87
2022-07-29T10:28:36.442Z,24.79
2022-07-29T10:29:36.440Z,24.82
2022-07-29T10:30:36.426Z,24.68
2022-07-29T10:31:36.501Z,24.71
2022-07-29T10:32:36.396Z,24.71
2022-07-29T10:33:36.387Z,24.79
2022-07-29T10:34:36.416Z,24.85
2022-07-29T10:35:36.373Z,24.91
2022-07-29T10:36:36.368Z,25.00
2022-07-29T10:37:36.358Z,25.06
2022-07-29T10:38:36.340Z,25.16
2022-07-29T10:39:41.744Z,25.27
2022-07-29T10:40:37.309Z,25.30
2022-07-29T10:41:44.045Z,25.72
2022-07-29T10:42:37.288Z,26.12
2022-07-29T10:43:36.289Z,26.17
2022-07-29T10:44:36.278Z,26.18
2022-07-29T10:45:36.257Z,26.08
2022-07-29T10:46:36.354Z,26.06
2022-07-29T10:47:36.237Z,25.89
2022-07-29T10:48:36.224Z,26.15
2022-07-29T10:49:36.261Z,26.42
2022-07-29T10:50:36.209Z,26.69
2022-07-29T10:51:36.212Z,26.94
2022-07-29T10:52:36.179Z,27.21
2022-07-29T10:53:36.176Z,27.38
2022-07-29T10:54:36.157Z,27.51
2022-07-29T10:55:36.266Z,27.57
2022-07-29T10:56:36.150Z,27.79
2022-07-29T10:57:52.523Z,27.69
2022-07-29T10:58:37.111Z,27.82
2022-07-29T10:59:36.662Z,27.88
2022-07-29T11:00:36.096Z,27.95
2022-07-29T11:01:37.774Z,28.07
2022-07-29T11:02:41.376Z,28.13
2022-07-29T11:03:37.142Z,28.38
2022-07-29T11:04:36.053Z,28.54
2022-07-29T11:05:40.763Z,28.66
2022-07-29T11:06:37.047Z,28.72
2022-07-29T11:07:42.614Z,28.82
2022-07-29T11:08:37.018Z,28.78
2022-07-29T11:09:38.280Z,28.84
2022-07-29T11:10:35.992Z,28.75
2022-07-29T11:11:35.982Z,28.73
2022-07-29T11:12:35.992Z,28.68
2022-07-29T11:13:41.061Z,28.62
2022-07-29T11:14:36.948Z,28.60
2022-07-29T11:15:35.947Z,28.58
2022-07-29T11:16:35.942Z,28.33
2022-07-29T11:17:37.542Z,28.41
2022-07-29T11:18:36.907Z,28.40
2022-07-29T11:19:36.034Z,28.58
2022-07-29T11:20:36.522Z,28.56
2022-07-29T11:21:53.430Z,28.48
2022-07-29T11:22:36.890Z,28.53
2022-07-29T11:23:36.862Z,28.53
2022-07-29T11:24:36.025Z,28.50
2022-07-29T11:25:43.062Z,28.68
2022-07-29T11:26:36.831Z,28.70
2022-07-29T11:27:35.819Z,28.59
2022-07-29T11:28:35.829Z,28.72
2022-07-29T11:29:40.079Z,28.56
2022-07-29T11:30:35.783Z,28.47
2022-07-29T11:31:35.781Z,28.38
2022-07-29T11:32:35.768Z,28.38
2022-07-29T11:33:54.153Z,28.36
2022-07-29T11:34:36.747Z,28.50
2022-07-29T11:35:38.260Z,28.46
2022-07-29T11:36:35.727Z,28.54
2022-07-29T11:38:36.711Z,28.53
2022-07-29T11:39:36.258Z,28.51
2022-07-29T11:40:35.688Z,28.69
2022-07-29T11:41:35.671Z,28.70
2022-07-29T11:42:35.666Z,28.78
2022-07-29T11:43:35.674Z,28.82
2022-07-29T11:44:35.638Z,28.85
2022-07-29T11:45:43.218Z,28.96
2022-07-29T11:46:36.624Z,28.96
2022-07-29T11:47:39.509Z,28.91
2022-07-29T11:48:35.610Z,28.84
2022-07-29T11:49:35.588Z,28.96
2022-07-29T11:50:35.580Z,28.82
2022-07-29T11:51:35.564Z,28.82
2022-07-29T11:52:35.554Z,28.84
2022-07-29T11:53:36.555Z,28.88
2022-07-29T11:54:38.689Z,28.81
2022-07-29T11:55:36.532Z,28.77
2022-07-29T11:56:36.516Z,28.85
2022-07-29T11:57:36.373Z,28.77
2022-07-29T11:58:35.507Z,28.81
2022-07-29T11:59:35.480Z,28.75
2022-07-29T12:00:35.475Z,28.82
2022-07-29T12:01:35.459Z,28.66
2022-07-29T12:02:37.066Z,28.56
2022-07-29T12:03:36.917Z,28.59
2022-07-29T12:04:35.429Z,28.59
2022-07-29T12:05:36.824Z,28.53
2022-07-29T12:06:35.404Z,28.65
2022-07-29T12:07:35.510Z,28.43
2022-07-29T12:08:35.406Z,28.43
2022-07-29T12:09:40.336Z,28.38
2022-07-29T12:10:36.368Z,28.38
2022-07-29T12:11:35.363Z,28.50
2022-07-29T12:12:35.341Z,28.56
2022-07-29T12:13:37.852Z,28.44
2022-07-29T12:14:35.341Z,28.33
2022-07-29T12:15:46.031Z,28.28
2022-07-29T12:16:36.358Z,28.17
2022-07-29T12:17:35.297Z,27.91
2022-07-29T12:18:35.284Z,27.80
2022-07-29T12:19:35.305Z,27.76
2022-07-29T12:20:35.258Z,27.50
2022-07-29T12:21:35.262Z,27.35
2022-07-29T12:22:35.235Z,27.23
2022-07-29T12:23:35.674Z,27.13
2022-07-29T12:24:35.214Z,27.17
2022-07-29T12:25:35.229Z,26.94
2022-07-29T12:26:35.832Z,26.98
2022-07-29T12:27:35.246Z,26.92
2022-07-29T12:28:36.189Z,26.92
2022-07-29T12:29:35.933Z,26.92
2022-07-29T12:30:35.157Z,26.94
2022-07-29T12:31:42.071Z,26.96
2022-07-29T12:32:36.183Z,26.96
2022-07-29T12:33:35.134Z,26.99
2022-07-29T12:34:35.112Z,27.11
2022-07-29T12:35:35.113Z,27.20
2022-07-29T12:36:35.089Z,27.31
2022-07-29T12:37:40.514Z,27.46
2022-07-29T12:38:36.126Z,27.62
2022-07-29T12:39:35.057Z,27.61
2022-07-29T12:40:35.043Z,27.80
2022-07-29T12:41:35.048Z,27.85
2022-07-29T12:42:35.021Z,27.92
2022-07-29T12:43:35.012Z,28.07
2022-07-29T12:44:35.040Z,28.28
2022-07-29T12:45:34.993Z,28.28
2022-07-29T12:46:35.050Z,28.25
2022-07-29T12:47:35.026Z,28.28
2022-07-29T12:48:34.973Z,28.17
2022-07-29T12:49:37.976Z,28.35
2022-07-29T12:50:34.938Z,28.25
2022-07-29T12:51:34.931Z,28.32
2022-07-29T12:52:34.916Z,28.32
2022-07-29T12:53:34.925Z,28.44
2022-07-29T12:54:34.902Z,28.36